createdAt,value
2022-08-10T00:01:53.794Z,67.60
2022-08-10T00:04:24.023Z,67.90
2022-08-10T00:06:54.591Z,67.70
2022-08-10T00:09:24.459Z,67.90
2022-08-10T00:11:53.015Z,67.60
2022-08-10T00:14:22.891Z,67.60
2022-08-10T00:16:51.272Z,67.40
2022-08-10T00:19:19.625Z,67.20
2022-08-10T00:21:48.661Z,66.60
2022-08-10T00:24:17.398Z,67.40
2022-08-10T00:27:53.121Z,67.70
2022-08-10T00:29:36.151Z,67.60
2022-08-10T00:32:05.022Z,67.60
2022-08-10T00:34:34.565Z,67.60
2022-08-10T00:37:03.299Z,67.60
2022-08-10T00:39:36.605Z,67.60
2022-08-10T00:42:09.015Z,67.20
2022-08-10T00:44:42.174Z,66.80
2022-08-10T00:47:35.983Z,66.30
2022-08-10T00:50:00.316Z,66.30
2022-08-10T00:52:31.124Z,66.60
2022-08-10T00:55:00.491Z,67.70
2022-08-10T00:57:29.685Z,67.20
2022-08-10T01:00:00.559Z,68.10
2022-08-10T01:02:32.526Z,67.60
2022-08-10T01:05:06.397Z,68.10
2022-08-10T01:07:52.402Z,68.50
2022-08-10T01:10:48.412Z,68.50
2022-08-10T01:13:23.487Z,68.90
2022-08-10T01:16:01.455Z,68.50
2022-08-10T01:18:41.659Z,68.50
2022-08-10T01:21:56.972Z,69.10
2022-08-10T01:25:04.903Z,69.60
2022-08-10T01:27:38.287Z,68.50
2022-08-10T01:30:10.590Z,69.60
2022-08-10T01:32:48.976Z,69.60
2022-08-10T01:35:25.979Z,69.40
2022-08-10T01:38:05.096Z,69.60
2022-08-10T01:40:38.275Z,69.80
2022-08-10T01:43:11.041Z,68.50
2022-08-10T01:45:48.293Z,69.20
2022-08-10T01:48:30.886Z,70.40
2022-08-10T01:51:10.280Z,70.20
2022-08-10T01:53:47.126Z,70.20
2022-08-10T01:56:17.512Z,70.90
2022-08-10T01:58:47.865Z,70.40
2022-08-10T02:01:21.319Z,70.00
2022-08-10T02:04:04.928Z,70.40
2022-08-10T02:06:38.815Z,71.10
2022-08-10T02:09:09.198Z,71.30
2022-08-10T02:12:05.572Z,71.50
2022-08-10T02:14:33.224Z,71.70
2022-08-10T02:17:07.981Z,71.30
2022-08-10T02:19:40.302Z,71.50
2022-08-10T02:22:36.112Z,71.50
2022-08-10T02:25:03.336Z,71.80
2022-08-10T02:27:33.502Z,71.80
2022-08-10T02:30:02.291Z,73.30
2022-08-10T02:32:38.653Z,74.50
2022-08-10T02:35:22.466Z,74.60
2022-08-10T02:37:55.982Z,73.90
2022-08-10T02:45:16.174Z,75.00
2022-08-10T02:45:22.799Z,75.00
2022-08-10T02:46:32.414Z,75.20
2022-08-10T02:49:05.087Z,74.80
2022-08-10T02:52:07.615Z,74.80
2022-08-10T02:54:43.230Z,75.20
2022-08-10T02:57:19.769Z,75.40
2022-08-10T02:59:52.476Z,74.60
2022-08-10T03:02:27.444Z,76.30
2022-08-10T03:05:04.902Z,76.30
2022-08-10T03:07:43.495Z,76.30
2022-08-10T03:10:17.778Z,77.40
2022-08-10T03:12:51.473Z,76.50
2022-08-10T03:15:22.383Z,75.00
2022-08-10T03:17:58.280Z,75.20
2022-08-10T03:20:38.177Z,75.20
2022-08-10T03:23:13.741Z,75.20
2022-08-10T03:25:53.263Z,75.40
2022-08-10T03:28:23.827Z,75.40
2022-08-10T03:30:52.953Z,75.40
2022-08-10T03:33:23.325Z,76.10
2022-08-10T03:36:43.726Z,76.70
2022-08-10T03:38:44.521Z,77.30
2022-08-10T03:41:16.217Z,77.40
2022-08-10T03:43:46.200Z,78.00
2022-08-10T03:46:17.516Z,78.60
2022-08-10T03:48:49.219Z,78.70
2022-08-10T03:51:21.511Z,79.50
2022-08-10T03:54:04.840Z,80.60
2022-08-10T03:56:37.355Z,81.90
2022-08-10T03:59:07.680Z,81.40
2022-08-10T04:02:43.271Z,82.10
2022-08-10T04:04:26.053Z,82.70
2022-08-10T04:06:58.509Z,83.20
2022-08-10T04:09:53.380Z,84.30
2022-08-10T04:12:23.329Z,85.30
2022-08-10T04:14:53.326Z,84.30
2022-08-10T04:18:02.707Z,85.10
2022-08-10T04:20:20.338Z,85.60
2022-08-10T04:22:53.699Z,85.60
2022-08-10T04:25:24.146Z,85.30
2022-08-10T04:27:53.890Z,85.50
2022-08-10T04:30:22.474Z,85.80
2022-08-10T04:33:04.078Z,85.30
2022-08-10T04:35:40.305Z,84.90
2022-08-10T04:38:12.840Z,85.60
2022-08-10T04:40:45.495Z,86.40
2022-08-10T04:43:30.765Z,88.10
2022-08-10T04:45:59.422Z,87.50
2022-08-10T04:48:41.075Z,87.70
2022-08-10T04:51:17.655Z,87.70
2022-08-10T04:54:03.923Z,88.40
2022-08-10T04:56:37.868Z,89.20
2022-08-10T04:59:07.787Z,88.20
2022-08-10T05:02:21.555Z,89.40
2022-08-10T05:04:36.731Z,89.00
2022-08-10T05:07:09.436Z,88.60
2022-08-10T05:10:02.555Z,88.80
2022-08-10T05:12:29.735Z,88.80
2022-08-10T05:14:58.047Z,87.70
2022-08-10T05:17:26.346Z,87.70
2022-08-10T05:20:04.455Z,86.60
2022-08-10T05:22:40.254Z,86.00
2022-08-10T05:25:13.544Z,85.60
2022-08-10T05:27:43.374Z,85.10
2022-08-10T05:30:16.794Z,85.10
2022-08-10T05:32:56.058Z,84.50
2022-08-10T05:35:28.040Z,84.50
2022-08-10T05:38:11.722Z,84.00
2022-08-10T05:40:46.990Z,83.60
2022-08-10T05:43:19.345Z,83.00
2022-08-10T05:46:17.900Z,82.70
2022-08-10T05:48:57.297Z,82.80
2022-08-10T05:51:27.364Z,82.70
2022-08-10T05:54:00.823Z,83.00
2022-08-10T05:56:56.491Z,81.20
2022-08-10T06:00:11.346Z,81.00
2022-08-10T06:02:30.876Z,80.00
2022-08-10T06:05:09.134Z,79.10
2022-08-10T06:07:42.532Z,78.70
2022-08-10T06:10:31.182Z,77.10
2022-08-10T06:13:29.727Z,76.10
2022-08-10T06:16:04.289Z,74.50
2022-08-10T06:18:33.503Z,72.80
2022-08-10T06:21:01.880Z,70.90
2022-08-10T06:23:32.007Z,70.50
2022-08-10T06:26:11.038Z,70.50
2022-08-10T06:28:58.236Z,70.20
2022-08-10T06:31:46.667Z,69.40
2022-08-10T06:34:22.456Z,66.80
2022-08-10T06:36:52.813Z,66.60
2022-08-10T06:39:37.801Z,65.70
2022-08-10T06:42:18.018Z,65.00
2022-08-10T06:44:59.272Z,64.20
2022-08-10T06:47:34.235Z,63.50
2022-08-10T06:50:12.521Z,62.90
2022-08-10T06:52:42.943Z,62.00
2022-08-10T06:55:16.868Z,61.20
2022-08-10T06:58:00.182Z,59.80
2022-08-10T07:00:33.891Z,61.20
2022-08-10T07:03:13.764Z,60.50
2022-08-10T07:05:51.212Z,58.60
2022-08-10T07:08:22.804Z,59.30
2022-08-10T07:10:53.592Z,59.00
2022-08-10T07:14:17.034Z,58.00
2022-08-10T07:16:14.491Z,58.30
2022-08-10T07:18:46.057Z,56.90
2022-08-10T07:21:15.881Z,53.90
2022-08-10T07:23:58.774Z,54.00
2022-08-10T07:26:30.354Z,56.60
2022-08-10T07:28:59.780Z,53.90
2022-08-10T07:31:54.861Z,53.70
2022-08-10T07:34:29.372Z,54.00
2022-08-10T07:37:03.861Z,54.30
2022-08-10T07:40:02.798Z,50.80
2022-08-10T07:42:40.892Z,50.80
2022-08-10T07:45:13.717Z,50.00
2022-08-10T07:47:55.048Z,48.40
2022-08-10T07:50:26.785Z,48.80
2022-08-10T07:53:02.469Z,50.80
2022-08-10T07:56:02.059Z,49.60
2022-08-10T07:58:31.401Z,49.70
2022-08-10T08:01:02.761Z,48.80
2022-08-10T08:03:39.056Z,47.30
2022-08-10T08:06:12.240Z,45.00
2022-08-10T08:08:46.705Z,48.40
2022-08-10T08:11:26.147Z,47.60
2022-08-10T08:13:57.185Z,46.40
2022-08-10T08:16:27.332Z,45.90
2022-08-10T08:24:09.318Z,42.70
2022-08-10T08:24:45.999Z,41.10
2022-08-10T08:27:19.562Z,39.40
2022-08-10T08:29:50.922Z,40.30
2022-08-10T08:32:22.760Z,38.20
2022-08-10T08:35:01.217Z,39.40
2022-08-10T08:38:30.540Z,36.50
2022-08-10T08:40:33.147Z,35.00
2022-08-10T08:43:51.501Z,34.50
2022-08-10T08:46:59.225Z,31.30
2022-08-10T08:50:18.436Z,31.80
2022-08-10T08:53:01.043Z,31.50
2022-08-10T08:56:04.702Z,29.70
2022-08-10T08:58:53.068Z,28.50
2022-08-10T09:01:42.099Z,28.40
2022-08-10T09:04:38.965Z,27.50
2022-08-10T09:07:59.259Z,26.30
2022-08-10T09:10:40.021Z,26.30
2022-08-10T09:13:18.025Z,26.50
2022-08-10T09:16:00.445Z,24.80
2022-08-10T09:18:41.262Z,24.80
2022-08-10T09:21:19.231Z,24.30
2022-08-10T09:24:04.661Z,23.10
2022-08-10T09:26:50.490Z,23.80
2022-08-10T09:29:26.453Z,22.20
2022-08-10T09:36:14.076Z,22.70
2022-08-10T09:36:22.618Z,21.40
2022-08-10T09:38:11.890Z,22.30
2022-08-10T09:41:00.265Z,22.20
2022-08-10T09:43:52.021Z,22.20
2022-08-10T09:46:43.441Z,21.60
2022-08-10T09:49:22.429Z,22.10
2022-08-10T09:52:10.990Z,21.30
2022-08-10T09:54:54.924Z,20.90
2022-08-10T09:57:43.986Z,21.10
2022-08-10T10:00:20.111Z,22.10
2022-08-10T10:03:02.995Z,20.60
2022-08-10T10:05:51.264Z,20.80
2022-08-10T10:08:29.585Z,21.60
2022-08-10T10:11:07.904Z,22.70
2022-08-10T10:16:50.643Z,20.60
2022-08-10T10:19:45.099Z,19.90
2022-08-10T10:22:43.855Z,20.40
2022-08-10T10:25:24.860Z,20.60
2022-08-10T10:28:43.834Z,19.20
2022-08-10T10:31:29.362Z,19.20
2022-08-10T10:34:10.018Z,18.70
2022-08-10T10:36:41.557Z,18.70
2022-08-10T10:39:13.998Z,18.10
2022-08-10T10:42:03.625Z,17.70
2022-08-10T10:44:49.689Z,18.40
2022-08-10T10:47:46.333Z,18.60
2022-08-10T10:50:21.042Z,18.70
2022-08-10T10:52:59.568Z,18.10
2022-08-10T10:56:15.284Z,17.60
2022-08-10T10:58:44.372Z,18.60
2022-08-10T11:01:36.597Z,18.70
2022-08-10T11:04:22.100Z,19.30
2022-08-10T11:07:02.999Z,18.40
2022-08-10T11:10:09.278Z,18.50
2022-08-10T11:12:35.301Z,17.90
2022-08-10T11:15:17.021Z,18.00
2022-08-10T11:17:52.749Z,17.00
2022-08-10T11:20:33.090Z,16.50
2022-08-10T11:23:17.719Z,17.40
2022-08-10T11:25:54.402Z,17.40
2022-08-10T11:28:36.938Z,17.10
2022-08-10T11:31:13.952Z,17.40
2022-08-10T11:34:11.350Z,17.00
2022-08-10T11:36:50.355Z,16.80
2022-08-10T11:39:29.856Z,16.60
2022-08-10T11:42:06.721Z,16.50
2022-08-10T11:44:49.211Z,16.20
2022-08-10T11:47:21.759Z,16.50
2022-08-10T11:49:56.813Z,18.00
2022-08-10T11:52:38.076Z,16.40
2022-08-10T11:55:14.879Z,16.00
2022-08-10T11:57:53.319Z,16.40
2022-08-10T12:00:23.078Z,16.40
2022-08-10T12:02:55.380Z,16.20
2022-08-10T12:05:52.113Z,17.50
2022-08-10T12:10:05.837Z,15.80
2022-08-10T12:11:12.667Z,17.00
2022-08-10T12:14:20.377Z,17.10
2022-08-10T12:16:56.464Z,16.20
2022-08-10T12:19:59.377Z,16.70
2022-08-10T12:22:24.887Z,16.30
2022-08-10T12:24:59.934Z,16.80
2022-08-10T12:27:38.662Z,16.10
2022-08-10T12:30:09.653Z,16.70
2022-08-10T12:32:46.856Z,15.60
2022-08-10T12:35:26.211Z,15.70
2022-08-10T12:38:06.990Z,15.70
2022-08-10T12:40:44.484Z,16.80
2022-08-10T12:44:04.592Z,15.90
2022-08-10T12:46:15.777Z,15.70
2022-08-10T12:48:55.863Z,16.30
2022-08-10T12:51:30.300Z,16.80
2022-08-10T12:54:08.762Z,15.60
2022-08-10T12:56:43.671Z,17.40
2022-08-10T12:59:13.285Z,16.90
2022-08-10T13:02:06.850Z,16.20
2022-08-10T13:04:34.849Z,17.50
2022-08-10T13:07:06.289Z,17.00
2022-08-10T13:09:55.561Z,16.50
2022-08-10T13:12:37.410Z,16.10
2022-08-10T13:15:25.304Z,15.90
2022-08-10T13:18:18.363Z,16.20
2022-08-10T13:20:57.276Z,16.90
2022-08-10T13:23:29.940Z,17.00
2022-08-10T13:26:04.295Z,16.00
2022-08-10T13:28:45.931Z,17.00
2022-08-10T13:31:20.145Z,17.70
2022-08-10T13:34:40.260Z,17.10
2022-08-10T13:36:43.882Z,16.70
2022-08-10T13:39:15.210Z,16.80
2022-08-10T13:41:47.513Z,15.50
2022-08-10T13:44:29.828Z,16.70
2022-08-10T13:46:59.047Z,15.90
2022-08-10T13:49:44.705Z,15.60
2022-08-10T13:52:20.438Z,15.20
2022-08-10T13:55:05.365Z,15.20
2022-08-10T13:57:36.773Z,15.70
2022-08-10T14:00:34.532Z,15.90
2022-08-10T14:03:15.625Z,16.10
2022-08-10T14:05:52.386Z,16.20
2022-08-10T14:08:26.725Z,15.70
2022-08-10T14:11:11.886Z,17.50
2022-08-10T14:13:47.458Z,16.00
2022-08-10T14:16:22.382Z,16.40
2022-08-10T14:18:54.666Z,16.50
2022-08-10T14:21:47.631Z,17.50
2022-08-10T14:24:25.887Z,17.60
2022-08-10T14:27:05.560Z,17.00
2022-08-10T14:29:46.226Z,17.60
2022-08-10T14:32:20.659Z,18.30
2022-08-10T14:36:15.578Z,19.10
2022-08-10T14:37:44.372Z,19.70
2022-08-10T14:40:17.553Z,19.30
2022-08-10T14:42:50.468Z,19.90
2022-08-10T14:45:29.017Z,20.90
2022-08-10T14:48:07.839Z,19.90
2022-08-10T14:50:55.171Z,20.60
2022-08-10T14:53:27.497Z,19.60
2022-08-10T14:56:00.986Z,21.10
2022-08-10T14:58:34.689Z,20.60
2022-08-10T15:01:05.435Z,21.80
2022-08-10T15:04:01.548Z,20.70
2022-08-10T15:06:33.593Z,21.80
2022-08-10T15:09:12.190Z,20.70
2022-08-10T15:12:13.816Z,21.30
2022-08-10T15:14:42.945Z,21.40
2022-08-10T15:17:15.412Z,21.90
2022-08-10T15:20:02.380Z,21.80
2022-08-10T15:22:38.682Z,22.00
2022-08-10T15:25:18.045Z,21.20
2022-08-10T15:27:54.786Z,23.00
2022-08-10T15:30:30.991Z,23.40
2022-08-10T15:33:21.567Z,23.10
2022-08-10T15:37:36.078Z,23.00
2022-08-10T15:40:23.841Z,23.40
2022-08-10T15:42:35.962Z,23.30
2022-08-10T15:45:05.436Z,23.50
2022-08-10T15:47:46.002Z,24.10
2022-08-10T15:50:19.679Z,23.20
2022-08-10T15:53:01.642Z,23.20
2022-08-10T15:55:42.661Z,24.00
2022-08-10T15:58:30.283Z,23.00
2022-08-10T16:02:14.907Z,24.30
2022-08-10T16:04:08.709Z,23.50
2022-08-10T16:06:43.697Z,23.20
2022-08-10T16:10:23.637Z,24.00
2022-08-10T16:12:29.190Z,23.40
2022-08-10T16:15:07.200Z,24.00
2022-08-10T16:17:55.548Z,23.50
2022-08-10T16:20:31.356Z,23.90
2022-08-10T16:23:05.499Z,24.30
2022-08-10T16:25:48.427Z,25.00
2022-08-10T16:28:23.992Z,24.30
2022-08-10T16:30:56.523Z,25.20
2022-08-10T16:33:53.881Z,24.30
2022-08-10T16:36:20.630Z,24.20
2022-08-10T16:38:51.775Z,24.60
2022-08-10T16:42:05.314Z,24.30
2022-08-10T16:44:18.050Z,25.10
2022-08-10T16:46:47.589Z,23.90
2022-08-10T16:49:18.006Z,24.20
2022-08-10T16:51:49.009Z,25.30
2022-08-10T16:54:26.847Z,24.90
2022-08-10T16:57:02.456Z,25.00
2022-08-10T16:59:35.429Z,24.80
2022-08-10T17:02:07.128Z,24.70
2022-08-10T17:04:40.504Z,25.60
2022-08-10T17:07:14.426Z,25.10
2022-08-10T17:09:49.175Z,25.10
2022-08-10T17:12:27.072Z,25.50
2022-08-10T17:15:09.129Z,25.70
2022-08-10T17:17:45.791Z,25.90
2022-08-10T17:20:31.973Z,26.10
2022-08-10T17:23:06.465Z,26.50
2022-08-10T17:25:46.404Z,26.70
2022-08-10T17:28:34.673Z,26.10
2022-08-10T17:31:39.725Z,26.80
2022-08-10T17:34:03.757Z,26.50
2022-08-10T17:36:37.535Z,27.10
2022-08-10T17:39:09.961Z,26.80
2022-08-10T17:41:38.994Z,27.30
2022-08-10T17:44:11.260Z,27.80
2022-08-10T17:46:41.851Z,27.50
2022-08-10T17:49:13.048Z,27.60
2022-08-10T17:51:43.678Z,27.90
2022-08-10T17:54:25.534Z,28.50
2022-08-10T17:56:58.808Z,28.80
2022-08-10T17:59:31.822Z,28.00
2022-08-10T18:02:16.522Z,28.10
2022-08-10T18:04:54.438Z,28.40
2022-08-10T18:07:32.745Z,29.00
2022-08-10T18:10:05.178Z,29.30
2022-08-10T18:12:42.124Z,29.50
2022-08-10T18:15:17.393Z,29.80
2022-08-10T18:17:51.057Z,29.60
2022-08-10T18:20:27.763Z,29.90
2022-08-10T18:22:58.491Z,30.10
2022-08-10T18:25:32.023Z,30.10
2022-08-10T18:28:05.703Z,30.10
2022-08-10T18:30:48.087Z,30.40
2022-08-10T18:33:19.935Z,30.40
2022-08-10T18:35:49.322Z,31.30
2022-08-10T18:38:19.048Z,31.00
2022-08-10T18:40:54.476Z,31.20
2022-08-10T18:44:06.713Z,32.40
2022-08-10T18:46:24.835Z,31.60
2022-08-10T18:48:59.196Z,32.10
2022-08-10T18:51:35.745Z,32.20
2022-08-10T18:54:31.472Z,32.50
2022-08-10T18:57:24.266Z,32.40
2022-08-10T19:00:10.838Z,32.80
2022-08-10T19:03:04.194Z,33.30
2022-08-10T19:05:55.442Z,33.90
2022-08-10T19:09:09.637Z,34.80
2022-08-10T19:12:31.155Z,35.90
2022-08-10T19:15:14.586Z,36.60
2022-08-10T19:18:06.384Z,35.90
2022-08-10T19:20:43.118Z,36.30
2022-08-10T19:23:26.475Z,37.10
2022-08-10T19:26:43.393Z,37.30
2022-08-10T19:29:00.226Z,38.20
2022-08-10T19:31:44.260Z,38.80
2022-08-10T19:34:29.748Z,38.90
2022-08-10T19:37:10.214Z,39.10
2022-08-10T19:40:04.334Z,39.50
2022-08-10T19:42:47.058Z,39.80
2022-08-10T19:45:56.039Z,39.80
2022-08-10T19:48:28.206Z,42.30
2022-08-10T19:51:07.696Z,41.80
2022-08-10T19:53:49.149Z,42.10
2022-08-10T19:56:34.106Z,42.30
2022-08-10T19:59:11.617Z,42.60
2022-08-10T20:01:55.024Z,42.40
2022-08-10T20:04:32.065Z,43.30
2022-08-10T20:07:13.668Z,43.80
2022-08-10T20:09:48.642Z,44.40
2022-08-10T20:12:27.159Z,44.40
2022-08-10T20:15:05.444Z,44.40
2022-08-10T20:17:51.574Z,44.90
2022-08-10T20:20:31.630Z,45.00
2022-08-10T20:23:13.867Z,45.20
2022-08-10T20:25:48.416Z,45.90
2022-08-10T20:28:22.338Z,46.50
2022-08-10T20:30:55.450Z,47.20
2022-08-10T20:33:34.531Z,47.00
2022-08-10T20:36:12.818Z,47.30
2022-08-10T20:38:52.392Z,47.80
2022-08-10T20:41:31.983Z,48.50
2022-08-10T20:44:24.702Z,48.50
2022-08-10T20:47:04.179Z,48.70
2022-08-10T20:49:42.640Z,49.60
2022-08-10T20:52:12.418Z,50.50
2022-08-10T20:54:51.045Z,51.00
2022-08-10T20:58:04.468Z,51.70
2022-08-10T21:00:34.510Z,52.50
2022-08-10T21:03:31.735Z,53.40
2022-08-10T21:06:42.225Z,53.90
2022-08-10T21:09:38.390Z,54.50
2022-08-10T21:12:34.597Z,56.10
2022-08-10T21:15:25.078Z,57.80
2022-08-10T21:18:20.590Z,58.00
2022-08-10T21:20:59.742Z,58.00
2022-08-10T21:23:33.042Z,58.40
2022-08-10T21:26:10.370Z,56.70
2022-08-10T21:28:58.646Z,56.60
2022-08-10T21:31:44.500Z,57.40
2022-08-10T21:34:33.104Z,58.00
2022-08-10T21:37:09.956Z,57.20
2022-08-10T21:39:58.250Z,58.30
2022-08-10T21:43:00.178Z,58.90
2022-08-10T21:46:05.802Z,59.30
2022-08-10T21:49:03.092Z,59.60
2022-08-10T21:52:01.499Z,60.70
2022-08-10T21:55:01.043Z,61.00
2022-08-10T21:58:00.563Z,60.50
2022-08-10T22:00:49.467Z,61.00
2022-08-10T22:03:40.048Z,61.60
2022-08-10T22:06:28.479Z,63.10
2022-08-10T22:09:20.126Z,64.20
2022-08-10T22:12:30.963Z,64.60
2022-08-10T22:16:03.975Z,64.80
2022-08-10T22:18:37.087Z,66.80
2022-08-10T22:21:45.901Z,66.30
2022-08-10T22:24:55.515Z,66.40
2022-08-10T22:27:51.701Z,66.80
2022-08-10T22:30:41.842Z,67.60
2022-08-10T22:33:49.340Z,70.00
2022-08-10T22:36:55.556Z,69.40
2022-08-10T22:40:12.023Z,70.40
2022-08-10T22:43:10.484Z,71.50
2022-08-10T22:46:05.447Z,70.90
2022-08-10T22:49:00.954Z,71.70
2022-08-10T22:51:44.496Z,74.80
2022-08-10T22:54:38.902Z,73.30
2022-08-10T22:57:25.189Z,75.20
2022-08-10T22:59:53.827Z,75.20
2022-08-10T23:02:31.787Z,75.00
2022-08-10T23:05:13.336Z,75.90
2022-08-10T23:07:52.852Z,74.80
2022-08-10T23:10:27.283Z,76.10
2022-08-10T23:13:04.125Z,76.10
2022-08-10T23:15:55.515Z,78.00
2022-08-10T23:18:51.328Z,79.70
2022-08-10T23:21:22.867Z,78.60
2022-08-10T23:23:54.112Z,80.00
2022-08-10T23:26:27.894Z,79.90
2022-08-10T23:29:05.368Z,79.10
2022-08-10T23:32:01.211Z,79.70
2022-08-10T23:34:33.182Z,79.70
2022-08-10T23:37:05.437Z,80.20
2022-08-10T23:39:36.531Z,78.60
2022-08-10T23:42:09.786Z,78.70
2022-08-10T23:44:45.185Z,78.90
2022-08-10T23:47:18.720Z,80.40
2022-08-10T23:49:51.934Z,79.50
2022-08-10T23:52:25.293Z,79.50
2022-08-10T23:54:59.175Z,80.40
2022-08-10T23:57:29.436Z,80.20
